sensor_id;sensor_type;location;lat;lon;timestamp;P1;durP1;ratioP1;P2;durP2;ratioP2
45686;SDS011;31399;51.176;7.776;2023-05-31T00:00:28;15.00;;;6.57;;
45686;SDS011;31399;51.176;7.776;2023-05-31T00:02:55;12.75;;;6.47;;
45686;SDS011;31399;51.176;7.776;2023-05-31T00:05:22;13.27;;;5.65;;
45686;SDS011;31399;51.176;7.776;2023-05-31T00:07:49;11.13;;;5.53;;
45686;SDS011;31399;51.176;7.776;2023-05-31T00:10:15;12.23;;;6.50;;
45686;SDS011;31399;51.176;7.776;2023-05-31T00:12:42;13.55;;;5.75;;
45686;SDS011;31399;51.176;7.776;2023-05-31T00:15:09;10.88;;;6.68;;
45686;SDS011;31399;51.176;7.776;2023-05-31T00:17:36;13.57;;;6.18;;
45686;SDS011;31399;51.176;7.776;2023-05-31T00:20:05;17.23;;;6.18;;
45686;SDS011;31399;51.176;7.776;2023-05-31T00:22:32;14.98;;;6.60;;
45686;SDS011;31399;51.176;7.776;2023-05-31T00:24:59;14.68;;;6.07;;
45686;SDS011;31399;51.176;7.776;2023-05-31T00:27:25;17.38;;;5.95;;
45686;SDS011;31399;51.176;7.776;2023-05-31T00:29:52;13.40;;;5.85;;
45686;SDS011;31399;51.176;7.776;2023-05-31T00:32:19;11.60;;;5.30;;
45686;SDS011;31399;51.176;7.776;2023-05-31T00:34:45;13.80;;;6.43;;
45686;SDS011;31399;51.176;7.776;2023-05-31T00:37:12;13.65;;;5.65;;
45686;SDS011;31399;51.176;7.776;2023-05-31T00:39:38;14.15;;;6.47;;
45686;SDS011;31399;51.176;7.776;2023-05-31T00:42:05;10.52;;;5.15;;
45686;SDS011;31399;51.176;7.776;2023-05-31T00:44:32;12.63;;;5.55;;
45686;SDS011;31399;51.176;7.776;2023-05-31T00:46:59;11.93;;;5.63;;
45686;SDS011;31399;51.176;7.776;2023-05-31T00:49:26;10.88;;;5.15;;
45686;SDS011;31399;51.176;7.776;2023-05-31T00:51:53;13.02;;;5.55;;
45686;SDS011;31399;51.176;7.776;2023-05-31T00:54:19;13.55;;;5.43;;
45686;SDS011;31399;51.176;7.776;2023-05-31T00:56:46;12.52;;;5.18;;
45686;SDS011;31399;51.176;7.776;2023-05-31T00:59:13;8.65;;;5.07;;
45686;SDS011;31399;51.176;7.776;2023-05-31T01:01:40;12.85;;;5.18;;
45686;SDS011;31399;51.176;7.776;2023-05-31T01:04:08;14.10;;;5.85;;
45686;SDS011;31399;51.176;7.776;2023-05-31T01:06:34;11.02;;;5.20;;
45686;SDS011;31399;51.176;7.776;2023-05-31T01:09:02;8.95;;;5.13;;
45686;SDS011;31399;51.176;7.776;2023-05-31T01:11:41;11.10;;;6.05;;
45686;SDS011;31399;51.176;7.776;2023-05-31T01:17:22;14.18;;;5.80;;
45686;SDS011;31399;51.176;7.776;2023-05-31T01:20:07;12.23;;;5.22;;
45686;SDS011;31399;51.176;7.776;2023-05-31T01:28:22;12.30;;;5.20;;
45686;SDS011;31399;51.176;7.776;2023-05-31T01:30:51;11.48;;;5.70;;
45686;SDS011;31399;51.176;7.776;2023-05-31T01:33:18;13.00;;;4.97;;
45686;SDS011;31399;51.176;7.776;2023-05-31T01:35:45;12.80;;;5.38;;
45686;SDS011;31399;51.176;7.776;2023-05-31T01:38:12;13.43;;;5.43;;
45686;SDS011;31399;51.176;7.776;2023-05-31T01:40:38;13.27;;;5.75;;
45686;SDS011;31399;51.176;7.776;2023-05-31T01:43:06;12.95;;;5.60;;
45686;SDS011;31399;51.176;7.776;2023-05-31T01:45:33;11.43;;;5.40;;
45686;SDS011;31399;51.176;7.776;2023-05-31T01:48:03;10.98;;;5.40;;
45686;SDS011;31399;51.176;7.776;2023-05-31T01:50:32;8.98;;;4.40;;
45686;SDS011;31399;51.176;7.776;2023-05-31T01:52:59;12.43;;;6.25;;
45686;SDS011;31399;51.176;7.776;2023-05-31T01:55:26;12.18;;;5.57;;
45686;SDS011;31399;51.176;7.776;2023-05-31T01:57:53;10.50;;;4.85;;
45686;SDS011;31399;51.176;7.776;2023-05-31T02:00:21;11.05;;;4.95;;
45686;SDS011;31399;51.176;7.776;2023-05-31T02:02:49;14.10;;;5.50;;
45686;SDS011;31399;51.176;7.776;2023-05-31T02:05:17;13.02;;;6.00;;
45686;SDS011;31399;51.176;7.776;2023-05-31T02:07:44;11.93;;;5.15;;
45686;SDS011;31399;51.176;7.776;2023-05-31T02:10:12;7.15;;;4.20;;
45686;SDS011;31399;51.176;7.776;2023-05-31T02:12:38;9.40;;;4.28;;
45686;SDS011;31399;51.176;7.776;2023-05-31T02:15:06;11.00;;;5.30;;
45686;SDS011;31399;51.176;7.776;2023-05-31T02:17:40;10.05;;;4.82;;
45686;SDS011;31399;51.176;7.776;2023-05-31T02:20:09;10.18;;;4.72;;
45686;SDS011;31399;51.176;7.776;2023-05-31T02:22:40;13.73;;;5.73;;
45686;SDS011;31399;51.176;7.776;2023-05-31T02:25:10;10.45;;;4.63;;
45686;SDS011;31399;51.176;7.776;2023-05-31T02:27:38;11.65;;;4.53;;
45686;SDS011;31399;51.176;7.776;2023-05-31T02:30:05;6.72;;;3.70;;
45686;SDS011;31399;51.176;7.776;2023-05-31T02:32:32;12.85;;;4.35;;
45686;SDS011;31399;51.176;7.776;2023-05-31T02:35:04;9.07;;;4.80;;
45686;SDS011;31399;51.176;7.776;2023-05-31T02:37:31;11.93;;;5.00;;
45686;SDS011;31399;51.176;7.776;2023-05-31T02:39:58;9.63;;;3.80;;
45686;SDS011;31399;51.176;7.776;2023-05-31T02:42:25;11.88;;;5.22;;
45686;SDS011;31399;51.176;7.776;2023-05-31T02:44:52;12.65;;;4.97;;
45686;SDS011;31399;51.176;7.776;2023-05-31T02:47:18;11.77;;;4.25;;
45686;SDS011;31399;51.176;7.776;2023-05-31T02:49:45;8.02;;;4.85;;
45686;SDS011;31399;51.176;7.776;2023-05-31T02:52:12;8.60;;;4.13;;
45686;SDS011;31399;51.176;7.776;2023-05-31T02:54:38;8.30;;;4.30;;
45686;SDS011;31399;51.176;7.776;2023-05-31T02:57:05;8.55;;;4.40;;
45686;SDS011;31399;51.176;7.776;2023-05-31T02:59:31;8.00;;;3.78;;
45686;SDS011;31399;51.176;7.776;2023-05-31T03:01:58;11.65;;;4.35;;
45686;SDS011;31399;51.176;7.776;2023-05-31T03:04:25;11.48;;;4.00;;
45686;SDS011;31399;51.176;7.776;2023-05-31T03:06:51;14.52;;;4.75;;
45686;SDS011;31399;51.176;7.776;2023-05-31T03:09:18;14.85;;;5.00;;
45686;SDS011;31399;51.176;7.776;2023-05-31T03:11:45;10.32;;;4.53;;
45686;SDS011;31399;51.176;7.776;2023-05-31T03:14:12;12.65;;;4.55;;
45686;SDS011;31399;51.176;7.776;2023-05-31T03:16:38;9.38;;;3.75;;
45686;SDS011;31399;51.176;7.776;2023-05-31T03:19:05;14.43;;;3.95;;
45686;SDS011;31399;51.176;7.776;2023-05-31T03:21:31;13.90;;;4.07;;
45686;SDS011;31399;51.176;7.776;2023-05-31T03:23:58;11.40;;;4.35;;
45686;SDS011;31399;51.176;7.776;2023-05-31T03:26:25;9.75;;;4.20;;
45686;SDS011;31399;51.176;7.776;2023-05-31T03:28:52;9.35;;;4.68;;
45686;SDS011;31399;51.176;7.776;2023-05-31T03:31:19;11.68;;;4.55;;
45686;SDS011;31399;51.176;7.776;2023-05-31T03:33:45;11.82;;;4.30;;
45686;SDS011;31399;51.176;7.776;2023-05-31T03:36:12;13.75;;;5.03;;
45686;SDS011;31399;51.176;7.776;2023-05-31T03:38:39;10.48;;;4.97;;
45686;SDS011;31399;51.176;7.776;2023-05-31T03:41:05;12.88;;;4.85;;
45686;SDS011;31399;51.176;7.776;2023-05-31T03:43:32;9.35;;;4.32;;
45686;SDS011;31399;51.176;7.776;2023-05-31T03:45:58;8.02;;;4.88;;
45686;SDS011;31399;51.176;7.776;2023-05-31T03:48:27;10.57;;;4.95;;
45686;SDS011;31399;51.176;7.776;2023-05-31T03:50:55;13.43;;;5.85;;
45686;SDS011;31399;51.176;7.776;2023-05-31T03:53:22;6.93;;;4.72;;
45686;SDS011;31399;51.176;7.776;2023-05-31T03:55:51;10.75;;;4.03;;
45686;SDS011;31399;51.176;7.776;2023-05-31T03:58:18;10.48;;;4.93;;
45686;SDS011;31399;51.176;7.776;2023-05-31T04:00:45;8.07;;;4.80;;
45686;SDS011;31399;51.176;7.776;2023-05-31T04:03:13;10.48;;;5.20;;
45686;SDS011;31399;51.176;7.776;2023-05-31T04:05:40;13.45;;;5.43;;
45686;SDS011;31399;51.176;7.776;2023-05-31T04:08:07;13.65;;;5.82;;
45686;SDS011;31399;51.176;7.776;2023-05-31T04:10:34;13.27;;;5.78;;
45686;SDS011;31399;51.176;7.776;2023-05-31T04:13:00;8.10;;;4.38;;
45686;SDS011;31399;51.176;7.776;2023-05-31T04:15:27;11.80;;;5.60;;
45686;SDS011;31399;51.176;7.776;2023-05-31T04:17:55;14.45;;;5.07;;
45686;SDS011;31399;51.176;7.776;2023-05-31T04:20:21;8.55;;;5.43;;
45686;SDS011;31399;51.176;7.776;2023-05-31T04:22:48;10.77;;;4.82;;
45686;SDS011;31399;51.176;7.776;2023-05-31T04:25:15;14.70;;;5.00;;
45686;SDS011;31399;51.176;7.776;2023-05-31T04:27:43;11.68;;;5.55;;
45686;SDS011;31399;51.176;7.776;2023-05-31T04:30:10;12.88;;;5.63;;
45686;SDS011;31399;51.176;7.776;2023-05-31T04:32:37;11.80;;;4.97;;
45686;SDS011;31399;51.176;7.776;2023-05-31T04:35:04;11.93;;;5.20;;
45686;SDS011;31399;51.176;7.776;2023-05-31T04:37:32;10.55;;;5.50;;
45686;SDS011;31399;51.176;7.776;2023-05-31T04:40:03;10.48;;;5.32;;
45686;SDS011;31399;51.176;7.776;2023-05-31T04:42:31;13.75;;;5.75;;
45686;SDS011;31399;51.176;7.776;2023-05-31T04:44:58;10.77;;;5.22;;
45686;SDS011;31399;51.176;7.776;2023-05-31T04:47:27;19.60;;;5.32;;
45686;SDS011;31399;51.176;7.776;2023-05-31T04:49:55;7.50;;;4.03;;
45686;SDS011;31399;51.176;7.776;2023-05-31T04:52:27;9.82;;;4.15;;
45686;SDS011;31399;51.176;7.776;2023-05-31T04:54:58;13.35;;;4.18;;
45686;SDS011;31399;51.176;7.776;2023-05-31T04:57:25;8.23;;;4.35;;
45686;SDS011;31399;51.176;7.776;2023-05-31T04:59:55;8.20;;;4.05;;
45686;SDS011;31399;51.176;7.776;2023-05-31T05:02:25;8.18;;;4.03;;
45686;SDS011;31399;51.176;7.776;2023-05-31T05:04:53;8.23;;;4.10;;
45686;SDS011;31399;51.176;7.776;2023-05-31T05:07:20;10.43;;;4.30;;
45686;SDS011;31399;51.176;7.776;2023-05-31T05:09:52;9.68;;;4.32;;
45686;SDS011;31399;51.176;7.776;2023-05-31T05:12:18;9.38;;;4.38;;
45686;SDS011;31399;51.176;7.776;2023-05-31T05:14:45;6.75;;;3.55;;
45686;SDS011;31399;51.176;7.776;2023-05-31T05:17:11;9.68;;;4.28;;
45686;SDS011;31399;51.176;7.776;2023-05-31T05:19:39;13.43;;;4.22;;
45686;SDS011;31399;51.176;7.776;2023-05-31T05:22:05;13.27;;;4.88;;
45686;SDS011;31399;51.176;7.776;2023-05-31T05:24:33;7.85;;;4.35;;
45686;SDS011;31399;51.176;7.776;2023-05-31T05:27:00;9.15;;;3.92;;
45686;SDS011;31399;51.176;7.776;2023-05-31T05:29:26;13.07;;;3.90;;
45686;SDS011;31399;51.176;7.776;2023-05-31T05:31:53;13.57;;;4.32;;
45686;SDS011;31399;51.176;7.776;2023-05-31T05:34:20;9.27;;;4.72;;
45686;SDS011;31399;51.176;7.776;2023-05-31T05:36:46;10.40;;;4.45;;
45686;SDS011;31399;51.176;7.776;2023-05-31T05:39:13;13.23;;;4.88;;
45686;SDS011;31399;51.176;7.776;2023-05-31T05:41:40;8.43;;;4.20;;
45686;SDS011;31399;51.176;7.776;2023-05-31T05:44:06;12.10;;;5.10;;
45686;SDS011;31399;51.176;7.776;2023-05-31T05:46:33;10.02;;;4.18;;
45686;SDS011;31399;51.176;7.776;2023-05-31T05:49:00;14.05;;;4.25;;
45686;SDS011;31399;51.176;7.776;2023-05-31T05:51:26;10.70;;;4.15;;
45686;SDS011;31399;51.176;7.776;2023-05-31T05:53:53;12.05;;;4.35;;
45686;SDS011;31399;51.176;7.776;2023-05-31T05:56:20;8.32;;;4.30;;
45686;SDS011;31399;51.176;7.776;2023-05-31T05:58:47;8.27;;;4.00;;
45686;SDS011;31399;51.176;7.776;2023-05-31T06:01:14;9.32;;;3.90;;
45686;SDS011;31399;51.176;7.776;2023-05-31T06:03:49;12.05;;;4.65;;
45686;SDS011;31399;51.176;7.776;2023-05-31T06:06:16;8.73;;;3.60;;
45686;SDS011;31399;51.176;7.776;2023-05-31T06:08:43;8.43;;;3.47;;
45686;SDS011;31399;51.176;7.776;2023-05-31T06:11:11;9.55;;;3.80;;
45686;SDS011;31399;51.176;7.776;2023-05-31T06:13:38;11.27;;;3.03;;
45686;SDS011;31399;51.176;7.776;2023-05-31T06:16:05;7.10;;;3.38;;
45686;SDS011;31399;51.176;7.776;2023-05-31T06:18:31;5.82;;;3.10;;
45686;SDS011;31399;51.176;7.776;2023-05-31T06:20:58;8.23;;;3.13;;
45686;SDS011;31399;51.176;7.776;2023-05-31T06:23:26;6.85;;;2.75;;
45686;SDS011;31399;51.176;7.776;2023-05-31T06:25:53;8.95;;;2.03;;
45686;SDS011;31399;51.176;7.776;2023-05-31T06:28:20;6.60;;;1.75;;
45686;SDS011;31399;51.176;7.776;2023-05-31T06:30:46;6.40;;;2.03;;
45686;SDS011;31399;51.176;7.776;2023-05-31T06:33:13;6.10;;;2.97;;
45686;SDS011;31399;51.176;7.776;2023-05-31T06:35:40;5.60;;;2.13;;
45686;SDS011;31399;51.176;7.776;2023-05-31T06:38:12;10.32;;;2.95;;
45686;SDS011;31399;51.176;7.776;2023-05-31T06:40:42;3.30;;;1.85;;
45686;SDS011;31399;51.176;7.776;2023-05-31T06:43:09;4.80;;;1.75;;
45686;SDS011;31399;51.176;7.776;2023-05-31T06:45:39;5.38;;;1.95;;
45686;SDS011;31399;51.176;7.776;2023-05-31T06:48:08;7.15;;;1.60;;
45686;SDS011;31399;51.176;7.776;2023-05-31T06:50:37;4.38;;;2.05;;
45686;SDS011;31399;51.176;7.776;2023-05-31T06:53:04;4.72;;;1.90;;
45686;SDS011;31399;51.176;7.776;2023-05-31T06:55:32;5.82;;;2.20;;
45686;SDS011;31399;51.176;7.776;2023-05-31T06:57:58;7.28;;;1.88;;
45686;SDS011;31399;51.176;7.776;2023-05-31T07:00:25;5.72;;;2.00;;
45686;SDS011;31399;51.176;7.776;2023-05-31T07:02:52;6.05;;;1.85;;
45686;SDS011;31399;51.176;7.776;2023-05-31T07:05:19;4.75;;;1.67;;
45686;SDS011;31399;51.176;7.776;2023-05-31T07:07:45;7.80;;;2.30;;
45686;SDS011;31399;51.176;7.776;2023-05-31T07:10:12;4.75;;;2.03;;
45686;SDS011;31399;51.176;7.776;2023-05-31T07:12:39;4.20;;;2.00;;
45686;SDS011;31399;51.176;7.776;2023-05-31T07:15:06;3.75;;;1.73;;
45686;SDS011;31399;51.176;7.776;2023-05-31T07:17:35;3.60;;;1.73;;
45686;SDS011;31399;51.176;7.776;2023-05-31T07:20:01;5.47;;;1.77;;
45686;SDS011;31399;51.176;7.776;2023-05-31T07:22:30;5.10;;;2.13;;
45686;SDS011;31399;51.176;7.776;2023-05-31T07:24:56;6.15;;;1.98;;
45686;SDS011;31399;51.176;7.776;2023-05-31T07:27:24;3.47;;;1.38;;
45686;SDS011;31399;51.176;7.776;2023-05-31T07:29:50;4.93;;;1.80;;
45686;SDS011;31399;51.176;7.776;2023-05-31T07:32:17;5.45;;;2.22;;
45686;SDS011;31399;51.176;7.776;2023-05-31T07:34:44;8.85;;;3.22;;
45686;SDS011;31399;51.176;7.776;2023-05-31T07:37:29;9.25;;;2.00;;
45686;SDS011;31399;51.176;7.776;2023-05-31T07:39:56;5.00;;;1.70;;
45686;SDS011;31399;51.176;7.776;2023-05-31T07:42:22;7.78;;;1.92;;
45686;SDS011;31399;51.176;7.776;2023-05-31T07:44:49;4.88;;;1.50;;
45686;SDS011;31399;51.176;7.776;2023-05-31T07:47:16;3.10;;;1.27;;
45686;SDS011;31399;51.176;7.776;2023-05-31T07:49:43;2.90;;;1.52;;
45686;SDS011;31399;51.176;7.776;2023-05-31T07:52:10;3.20;;;1.35;;
45686;SDS011;31399;51.176;7.776;2023-05-31T07:54:36;5.00;;;1.40;;
45686;SDS011;31399;51.176;7.776;2023-05-31T07:57:03;4.80;;;1.50;;
45686;SDS011;31399;51.176;7.776;2023-05-31T07:59:30;6.38;;;1.60;;
45686;SDS011;31399;51.176;7.776;2023-05-31T08:01:56;4.25;;;1.50;;
45686;SDS011;31399;51.176;7.776;2023-05-31T08:04:23;3.40;;;1.30;;
45686;SDS011;31399;51.176;7.776;2023-05-31T08:06:50;3.70;;;1.40;;
45686;SDS011;31399;51.176;7.776;2023-05-31T08:09:17;4.38;;;1.52;;
45686;SDS011;31399;51.176;7.776;2023-05-31T08:11:43;1.55;;;1.23;;
45686;SDS011;31399;51.176;7.776;2023-05-31T08:14:10;4.13;;;1.42;;
45686;SDS011;31399;51.176;7.776;2023-05-31T08:16:38;3.65;;;1.25;;
45686;SDS011;31399;51.176;7.776;2023-05-31T08:19:06;3.58;;;1.63;;
45686;SDS011;31399;51.176;7.776;2023-05-31T08:21:32;6.95;;;1.65;;
45686;SDS011;31399;51.176;7.776;2023-05-31T08:24:03;6.25;;;1.33;;
45686;SDS011;31399;51.176;7.776;2023-05-31T08:26:35;2.97;;;1.08;;
45686;SDS011;31399;51.176;7.776;2023-05-31T08:29:02;5.40;;;1.63;;
45686;SDS011;31399;51.176;7.776;2023-05-31T08:31:29;3.50;;;1.30;;
45686;SDS011;31399;51.176;7.776;2023-05-31T08:33:56;6.57;;;1.80;;
45686;SDS011;31399;51.176;7.776;2023-05-31T08:36:24;2.50;;;0.90;;
45686;SDS011;31399;51.176;7.776;2023-05-31T08:38:51;4.45;;;1.20;;
45686;SDS011;31399;51.176;7.776;2023-05-31T08:41:18;4.45;;;1.23;;
45686;SDS011;31399;51.176;7.776;2023-05-31T08:43:46;3.08;;;1.45;;
45686;SDS011;31399;51.176;7.776;2023-05-31T08:46:14;6.78;;;1.55;;
45686;SDS011;31399;51.176;7.776;2023-05-31T08:48:51;4.85;;;1.23;;
45686;SDS011;31399;51.176;7.776;2023-05-31T08:51:19;2.38;;;1.30;;
45686;SDS011;31399;51.176;7.776;2023-05-31T08:53:46;4.43;;;0.90;;
45686;SDS011;31399;51.176;7.776;2023-05-31T08:56:13;1.60;;;1.10;;
45686;SDS011;31399;51.176;7.776;2023-05-31T08:58:41;3.67;;;1.15;;
45686;SDS011;31399;51.176;7.776;2023-05-31T09:01:09;8.40;;;1.60;;
45686;SDS011;31399;51.176;7.776;2023-05-31T09:03:36;3.42;;;1.40;;
45686;SDS011;31399;51.176;7.776;2023-05-31T09:06:04;2.35;;;1.23;;
45686;SDS011;31399;51.176;7.776;2023-05-31T09:08:30;2.22;;;0.88;;
45686;SDS011;31399;51.176;7.776;2023-05-31T09:11:01;4.00;;;1.20;;
45686;SDS011;31399;51.176;7.776;2023-05-31T09:13:28;7.57;;;1.60;;
45686;SDS011;31399;51.176;7.776;2023-05-31T09:15:55;5.60;;;1.10;;
45686;SDS011;31399;51.176;7.776;2023-05-31T09:18:22;3.80;;;1.35;;
45686;SDS011;31399;51.176;7.776;2023-05-31T09:20:49;6.40;;;1.27;;
45686;SDS011;31399;51.176;7.776;2023-05-31T09:23:19;5.43;;;1.48;;
45686;SDS011;31399;51.176;7.776;2023-05-31T09:25:49;6.28;;;1.15;;
45686;SDS011;31399;51.176;7.776;2023-05-31T09:28:18;3.20;;;1.13;;
45686;SDS011;31399;51.176;7.776;2023-05-31T09:30:45;4.15;;;1.38;;
45686;SDS011;31399;51.176;7.776;2023-05-31T09:33:12;3.65;;;1.30;;
45686;SDS011;31399;51.176;7.776;2023-05-31T09:36:17;2.42;;;1.15;;
45686;SDS011;31399;51.176;7.776;2023-05-31T09:38:34;4.95;;;1.48;;
45686;SDS011;31399;51.176;7.776;2023-05-31T09:41:20;3.90;;;1.20;;
45686;SDS011;31399;51.176;7.776;2023-05-31T09:43:48;6.05;;;1.52;;
45686;SDS011;31399;51.176;7.776;2023-05-31T09:46:20;4.38;;;1.00;;
45686;SDS011;31399;51.176;7.776;2023-05-31T09:49:00;4.03;;;1.23;;
45686;SDS011;31399;51.176;7.776;2023-05-31T09:51:30;3.17;;;1.20;;
45686;SDS011;31399;51.176;7.776;2023-05-31T09:54:02;5.40;;;1.00;;
45686;SDS011;31399;51.176;7.776;2023-05-31T09:56:36;4.35;;;1.10;;
45686;SDS011;31399;51.176;7.776;2023-05-31T09:59:04;5.00;;;1.55;;
45686;SDS011;31399;51.176;7.776;2023-05-31T10:01:32;2.67;;;1.08;;
45686;SDS011;31399;51.176;7.776;2023-05-31T10:03:59;2.88;;;1.80;;
45686;SDS011;31399;51.176;7.776;2023-05-31T10:06:27;3.72;;;1.10;;
45686;SDS011;31399;51.176;7.776;2023-05-31T10:08:54;2.75;;;1.13;;
45686;SDS011;31399;51.176;7.776;2023-05-31T10:11:28;5.13;;;1.10;;
45686;SDS011;31399;51.176;7.776;2023-05-31T10:14:00;2.38;;;1.20;;
45686;SDS011;31399;51.176;7.776;2023-05-31T10:16:31;5.60;;;1.00;;
45686;SDS011;31399;51.176;7.776;2023-05-31T10:19:04;3.67;;;1.48;;
45686;SDS011;31399;51.176;7.776;2023-05-31T10:21:33;5.05;;;1.30;;
45686;SDS011;31399;51.176;7.776;2023-05-31T10:26:56;3.67;;;1.63;;
45686;SDS011;31399;51.176;7.776;2023-05-31T10:29:27;3.03;;;1.38;;
45686;SDS011;31399;51.176;7.776;2023-05-31T10:32:01;7.25;;;1.15;;
45686;SDS011;31399;51.176;7.776;2023-05-31T10:34:36;2.38;;;1.25;;
45686;SDS011;31399;51.176;7.776;2023-05-31T10:37:02;5.22;;;1.20;;
45686;SDS011;31399;51.176;7.776;2023-05-31T10:45:26;2.85;;;1.08;;
45686;SDS011;31399;51.176;7.776;2023-05-31T10:50:51;2.50;;;1.40;;
45686;SDS011;31399;51.176;7.776;2023-05-31T10:53:29;3.88;;;1.40;;
45686;SDS011;31399;51.176;7.776;2023-05-31T10:58:54;4.43;;;1.35;;
45686;SDS011;31399;51.176;7.776;2023-05-31T11:01:20;3.22;;;1.02;;
45686;SDS011;31399;51.176;7.776;2023-05-31T11:03:51;4.07;;;1.10;;
45686;SDS011;31399;51.176;7.776;2023-05-31T11:06:29;2.85;;;0.90;;
45686;SDS011;31399;51.176;7.776;2023-05-31T11:09:03;5.88;;;1.17;;
45686;SDS011;31399;51.176;7.776;2023-05-31T11:19:16;2.55;;;1.10;;
45686;SDS011;31399;51.176;7.776;2023-05-31T11:21:50;4.70;;;1.05;;
45686;SDS011;31399;51.176;7.776;2023-05-31T11:24:25;1.98;;;1.10;;
45686;SDS011;31399;51.176;7.776;2023-05-31T11:26:52;3.33;;;1.00;;
45686;SDS011;31399;51.176;7.776;2023-05-31T11:29:19;5.78;;;1.45;;
45686;SDS011;31399;51.176;7.776;2023-05-31T11:37:20;2.95;;;1.00;;
45686;SDS011;31399;51.176;7.776;2023-05-31T11:39:49;2.03;;;1.05;;
45686;SDS011;31399;51.176;7.776;2023-05-31T11:42:16;2.40;;;1.15;;
45686;SDS011;31399;51.176;7.776;2023-05-31T11:44:44;5.85;;;1.48;;
45686;SDS011;31399;51.176;7.776;2023-05-31T11:47:19;3.17;;;1.40;;
45686;SDS011;31399;51.176;7.776;2023-05-31T11:49:47;3.90;;;1.52;;
45686;SDS011;31399;51.176;7.776;2023-05-31T11:52:17;4.60;;;1.10;;
45686;SDS011;31399;51.176;7.776;2023-05-31T11:54:46;4.28;;;1.23;;
45686;SDS011;31399;51.176;7.776;2023-05-31T11:57:15;4.03;;;1.20;;
45686;SDS011;31399;51.176;7.776;2023-05-31T11:59:46;3.60;;;0.73;;
45686;SDS011;31399;51.176;7.776;2023-05-31T12:02:13;4.15;;;1.10;;
45686;SDS011;31399;51.176;7.776;2023-05-31T12:04:41;3.80;;;1.20;;
45686;SDS011;31399;51.176;7.776;2023-05-31T12:07:11;2.90;;;1.17;;
45686;SDS011;31399;51.176;7.776;2023-05-31T12:09:43;3.45;;;1.00;;
45686;SDS011;31399;51.176;7.776;2023-05-31T12:12:10;2.42;;;1.00;;
45686;SDS011;31399;51.176;7.776;2023-05-31T12:14:38;2.20;;;1.00;;
45686;SDS011;31399;51.176;7.776;2023-05-31T12:17:04;2.40;;;0.80;;
45686;SDS011;31399;51.176;7.776;2023-05-31T12:19:32;2.80;;;1.08;;
45686;SDS011;31399;51.176;7.776;2023-05-31T12:21:59;2.03;;;1.02;;
45686;SDS011;31399;51.176;7.776;2023-05-31T12:24:27;4.15;;;1.17;;
45686;SDS011;31399;51.176;7.776;2023-05-31T12:26:55;1.58;;;0.70;;
45686;SDS011;31399;51.176;7.776;2023-05-31T12:29:25;2.08;;;1.10;;
45686;SDS011;31399;51.176;7.776;2023-05-31T12:32:00;6.32;;;0.95;;
45686;SDS011;31399;51.176;7.776;2023-05-31T12:34:29;1.80;;;0.80;;
45686;SDS011;31399;51.176;7.776;2023-05-31T12:36:57;2.25;;;1.02;;
45686;SDS011;31399;51.176;7.776;2023-05-31T12:39:24;1.73;;;0.73;;
45686;SDS011;31399;51.176;7.776;2023-05-31T12:41:51;4.45;;;0.98;;
45686;SDS011;31399;51.176;7.776;2023-05-31T12:44:21;4.13;;;1.10;;
45686;SDS011;31399;51.176;7.776;2023-05-31T12:46:49;3.83;;;1.20;;
45686;SDS011;31399;51.176;7.776;2023-05-31T12:49:20;3.55;;;1.13;;
45686;SDS011;31399;51.176;7.776;2023-05-31T12:51:55;3.40;;;1.45;;
45686;SDS011;31399;51.176;7.776;2023-05-31T12:54:24;3.33;;;1.58;;
45686;SDS011;31399;51.176;7.776;2023-05-31T12:56:52;2.83;;;1.75;;
45686;SDS011;31399;51.176;7.776;2023-05-31T12:59:19;6.03;;;1.30;;
45686;SDS011;31399;51.176;7.776;2023-05-31T13:01:46;4.43;;;1.58;;
45686;SDS011;31399;51.176;7.776;2023-05-31T13:04:13;3.75;;;1.40;;
45686;SDS011;31399;51.176;7.776;2023-05-31T13:06:40;2.78;;;1.20;;
45686;SDS011;31399;51.176;7.776;2023-05-31T13:09:07;3.05;;;1.02;;
45686;SDS011;31399;51.176;7.776;2023-05-31T13:11:34;5.72;;;1.45;;
45686;SDS011;31399;51.176;7.776;2023-05-31T13:14:02;2.60;;;1.17;;
45686;SDS011;31399;51.176;7.776;2023-05-31T13:16:32;2.10;;;1.30;;
45686;SDS011;31399;51.176;7.776;2023-05-31T13:18:59;3.42;;;1.30;;
45686;SDS011;31399;51.176;7.776;2023-05-31T13:21:26;3.83;;;1.17;;
45686;SDS011;31399;51.176;7.776;2023-05-31T13:23:54;2.33;;;1.30;;
45686;SDS011;31399;51.176;7.776;2023-05-31T13:26:21;2.85;;;1.23;;
45686;SDS011;31399;51.176;7.776;2023-05-31T13:28:49;2.47;;;1.27;;
45686;SDS011;31399;51.176;7.776;2023-05-31T13:31:16;2.10;;;1.05;;
45686;SDS011;31399;51.176;7.776;2023-05-31T13:33:44;2.92;;;1.10;;
45686;SDS011;31399;51.176;7.776;2023-05-31T13:36:10;2.22;;;1.23;;
45686;SDS011;31399;51.176;7.776;2023-05-31T13:38:37;2.40;;;1.20;;
45686;SDS011;31399;51.176;7.776;2023-05-31T13:41:04;3.55;;;1.35;;
45686;SDS011;31399;51.176;7.776;2023-05-31T13:43:34;2.97;;;1.20;;
45686;SDS011;31399;51.176;7.776;2023-05-31T13:46:03;2.60;;;1.20;;
45686;SDS011;31399;51.176;7.776;2023-05-31T13:48:31;2.85;;;1.15;;
45686;SDS011;31399;51.176;7.776;2023-05-31T13:50:58;3.15;;;1.20;;
45686;SDS011;31399;51.176;7.776;2023-05-31T13:53:25;6.15;;;1.08;;
45686;SDS011;31399;51.176;7.776;2023-05-31T13:55:52;2.50;;;1.00;;
45686;SDS011;31399;51.176;7.776;2023-05-31T13:58:29;2.22;;;1.02;;
45686;SDS011;31399;51.176;7.776;2023-05-31T14:00:55;3.63;;;1.00;;
45686;SDS011;31399;51.176;7.776;2023-05-31T14:03:22;3.92;;;1.25;;
45686;SDS011;31399;51.176;7.776;2023-05-31T14:05:49;1.85;;;0.90;;
45686;SDS011;31399;51.176;7.776;2023-05-31T14:08:16;2.65;;;0.82;;
45686;SDS011;31399;51.176;7.776;2023-05-31T14:10:43;1.92;;;1.20;;
45686;SDS011;31399;51.176;7.776;2023-05-31T14:13:10;2.22;;;1.15;;
45686;SDS011;31399;51.176;7.776;2023-05-31T14:15:37;7.63;;;0.90;;
45686;SDS011;31399;51.176;7.776;2023-05-31T14:18:04;2.83;;;1.00;;
45686;SDS011;31399;51.176;7.776;2023-05-31T14:20:31;3.72;;;1.50;;
45686;SDS011;31399;51.176;7.776;2023-05-31T14:22:58;5.38;;;0.98;;
45686;SDS011;31399;51.176;7.776;2023-05-31T14:25:25;3.25;;;1.17;;
45686;SDS011;31399;51.176;7.776;2023-05-31T14:27:52;1.90;;;1.00;;
45686;SDS011;31399;51.176;7.776;2023-05-31T14:30:19;5.68;;;1.23;;
45686;SDS011;31399;51.176;7.776;2023-05-31T14:32:45;3.78;;;0.98;;
45686;SDS011;31399;51.176;7.776;2023-05-31T14:35:12;2.90;;;1.20;;
45686;SDS011;31399;51.176;7.776;2023-05-31T14:37:39;2.05;;;0.90;;
45686;SDS011;31399;51.176;7.776;2023-05-31T14:40:21;2.78;;;0.80;;
45686;SDS011;31399;51.176;7.776;2023-05-31T14:42:48;4.57;;;0.95;;
45686;SDS011;31399;51.176;7.776;2023-05-31T14:45:15;3.88;;;1.30;;
45686;SDS011;31399;51.176;7.776;2023-05-31T14:47:43;3.35;;;1.10;;
45686;SDS011;31399;51.176;7.776;2023-05-31T14:50:10;2.20;;;1.20;;
45686;SDS011;31399;51.176;7.776;2023-05-31T14:52:36;2.17;;;1.00;;
45686;SDS011;31399;51.176;7.776;2023-05-31T14:55:03;1.98;;;0.90;;
45686;SDS011;31399;51.176;7.776;2023-05-31T14:57:30;4.20;;;0.98;;
45686;SDS011;31399;51.176;7.776;2023-05-31T14:59:56;4.75;;;1.10;;
45686;SDS011;31399;51.176;7.776;2023-05-31T15:02:23;2.63;;;0.85;;
45686;SDS011;31399;51.176;7.776;2023-05-31T15:04:50;3.00;;;1.13;;
45686;SDS011;31399;51.176;7.776;2023-05-31T15:07:16;5.07;;;1.60;;
45686;SDS011;31399;51.176;7.776;2023-05-31T15:09:43;2.10;;;0.90;;
45686;SDS011;31399;51.176;7.776;2023-05-31T15:12:10;3.90;;;1.10;;
45686;SDS011;31399;51.176;7.776;2023-05-31T15:14:37;3.35;;;1.08;;
45686;SDS011;31399;51.176;7.776;2023-05-31T15:17:03;3.40;;;1.27;;
45686;SDS011;31399;51.176;7.776;2023-05-31T15:19:30;3.25;;;1.20;;
45686;SDS011;31399;51.176;7.776;2023-05-31T15:21:57;3.92;;;1.60;;
45686;SDS011;31399;51.176;7.776;2023-05-31T15:24:24;3.85;;;1.17;;